sensor_id;sensor_type;location;lat;lon;timestamp;temperature;humidity
18339;DHT22;9295;44.484;11.240;2023-02-17T00:00:09;6.30;99.90
18339;DHT22;9295;44.484;11.240;2023-02-17T00:02:39;6.20;99.90
18339;DHT22;9295;44.484;11.240;2023-02-17T00:05:07;6.10;99.90
18339;DHT22;9295;44.484;11.240;2023-02-17T00:07:36;6.10;99.90
18339;DHT22;9295;44.484;11.240;2023-02-17T00:10:07;6.00;99.90
18339;DHT22;9295;44.484;11.240;2023-02-17T00:12:36;5.90;99.90
18339;DHT22;9295;44.484;11.240;2023-02-17T00:15:05;5.80;99.90
18339;DHT22;9295;44.484;11.240;2023-02-17T00:17:34;5.80;99.90
18339;DHT22;9295;44.484;11.240;2023-02-17T00:20:05;5.80;99.90
18339;DHT22;9295;44.484;11.240;2023-02-17T00:22:35;5.80;99.90
18339;DHT22;9295;44.484;11.240;2023-02-17T00:25:04;5.80;99.90
18339;DHT22;9295;44.484;11.240;2023-02-17T00:27:32;5.70;99.90
18339;DHT22;9295;44.484;11.240;2023-02-17T00:30:01;5.80;99.90
18339;DHT22;9295;44.484;11.240;2023-02-17T00:32:29;5.80;99.90
18339;DHT22;9295;44.484;11.240;2023-02-17T00:34:58;5.70;99.90
18339;DHT22;9295;44.484;11.240;2023-02-17T00:37:28;5.70;99.90
18339;DHT22;9295;44.484;11.240;2023-02-17T00:39:56;5.70;99.90
18339;DHT22;9295;44.484;11.240;2023-02-17T00:42:25;5.60;99.90
18339;DHT22;9295;44.484;11.240;2023-02-17T00:44:58;5.60;99.90
18339;DHT22;9295;44.484;11.240;2023-02-17T00:47:26;5.50;99.90
18339;DHT22;9295;44.484;11.240;2023-02-17T00:49:55;5.50;99.90
18339;DHT22;9295;44.484;11.240;2023-02-17T00:52:27;5.40;99.90
18339;DHT22;9295;44.484;11.240;2023-02-17T00:54:56;5.40;99.90
18339;DHT22;9295;44.484;11.240;2023-02-17T00:57:24;5.40;99.90
18339;DHT22;9295;44.484;11.240;2023-02-17T00:59:53;5.40;99.90
18339;DHT22;9295;44.484;11.240;2023-02-17T01:02:22;5.40;99.90
18339;DHT22;9295;44.484;11.240;2023-02-17T01:04:52;5.50;99.90
18339;DHT22;9295;44.484;11.240;2023-02-17T01:07:21;5.50;99.90
18339;DHT22;9295;44.484;11.240;2023-02-17T01:09:51;5.50;99.90
18339;DHT22;9295;44.484;11.240;2023-02-17T01:12:19;5.50;99.90
18339;DHT22;9295;44.484;11.240;2023-02-17T01:14:48;5.40;99.90
18339;DHT22;9295;44.484;11.240;2023-02-17T01:17:16;5.40;99.90
18339;DHT22;9295;44.484;11.240;2023-02-17T01:19:45;5.40;99.90
18339;DHT22;9295;44.484;11.240;2023-02-17T01:22:15;5.40;99.90
18339;DHT22;9295;44.484;11.240;2023-02-17T01:24:44;5.40;99.90
18339;DHT22;9295;44.484;11.240;2023-02-17T01:27:13;5.40;99.90
18339;DHT22;9295;44.484;11.240;2023-02-17T01:29:43;5.40;99.90
18339;DHT22;9295;44.484;11.240;2023-02-17T01:32:12;5.50;99.90
18339;DHT22;9295;44.484;11.240;2023-02-17T01:34:40;5.50;99.90
18339;DHT22;9295;44.484;11.240;2023-02-17T01:37:09;5.60;99.90
18339;DHT22;9295;44.484;11.240;2023-02-17T01:39:38;5.60;99.90
18339;DHT22;9295;44.484;11.240;2023-02-17T01:42:13;5.60;99.90
18339;DHT22;9295;44.484;11.240;2023-02-17T01:47:44;5.60;99.90
18339;DHT22;9295;44.484;11.240;2023-02-17T01:50:13;5.60;99.90
18339;DHT22;9295;44.484;11.240;2023-02-17T01:52:43;5.50;99.90
18339;DHT22;9295;44.484;11.240;2023-02-17T01:55:14;5.40;99.90
18339;DHT22;9295;44.484;11.240;2023-02-17T01:57:47;5.40;99.90
18339;DHT22;9295;44.484;11.240;2023-02-17T02:00:18;5.40;99.90
18339;DHT22;9295;44.484;11.240;2023-02-17T02:02:48;5.40;99.90
18339;DHT22;9295;44.484;11.240;2023-02-17T02:05:19;5.40;99.90
18339;DHT22;9295;44.484;11.240;2023-02-17T02:07:49;5.40;99.90
18339;DHT22;9295;44.484;11.240;2023-02-17T02:10:19;5.40;99.90
18339;DHT22;9295;44.484;11.240;2023-02-17T02:12:48;5.40;99.90
18339;DHT22;9295;44.484;11.240;2023-02-17T02:15:20;5.40;99.90
18339;DHT22;9295;44.484;11.240;2023-02-17T02:18:02;5.40;99.90
18339;DHT22;9295;44.484;11.240;2023-02-17T02:20:55;5.40;99.90
18339;DHT22;9295;44.484;11.240;2023-02-17T02:23:46;5.20;99.90
18339;DHT22;9295;44.484;11.240;2023-02-17T02:26:54;5.20;99.90
18339;DHT22;9295;44.484;11.240;2023-02-17T02:29:55;5.20;99.90
18339;DHT22;9295;44.484;11.240;2023-02-17T02:35:24;5.20;99.90
18339;DHT22;9295;44.484;11.240;2023-02-17T02:37:59;5.20;99.90
18339;DHT22;9295;44.484;11.240;2023-02-17T02:40:35;5.20;99.90
18339;DHT22;9295;44.484;11.240;2023-02-17T02:43:06;5.20;99.90
18339;DHT22;9295;44.484;11.240;2023-02-17T02:45:35;5.20;99.90
18339;DHT22;9295;44.484;11.240;2023-02-17T02:48:05;5.30;99.90
18339;DHT22;9295;44.484;11.240;2023-02-17T02:50:44;5.30;99.90
18339;DHT22;9295;44.484;11.240;2023-02-17T02:53:36;5.30;99.90
18339;DHT22;9295;44.484;11.240;2023-02-17T02:56:15;5.30;99.90
18339;DHT22;9295;44.484;11.240;2023-02-17T02:58:51;5.20;99.90
18339;DHT22;9295;44.484;11.240;2023-02-17T03:01:29;5.30;99.90
18339;DHT22;9295;44.484;11.240;2023-02-17T03:04:08;5.30;99.90
18339;DHT22;9295;44.484;11.240;2023-02-17T03:06:44;5.20;99.90
18339;DHT22;9295;44.484;11.240;2023-02-17T03:09:18;5.20;99.90
18339;DHT22;9295;44.484;11.240;2023-02-17T03:11:48;5.20;99.90
18339;DHT22;9295;44.484;11.240;2023-02-17T03:14:19;5.20;99.90
18339;DHT22;9295;44.484;11.240;2023-02-17T03:16:49;5.30;99.90
18339;DHT22;9295;44.484;11.240;2023-02-17T03:19:21;5.30;99.90
18339;DHT22;9295;44.484;11.240;2023-02-17T03:21:56;5.30;99.90
18339;DHT22;9295;44.484;11.240;2023-02-17T03:24:26;5.30;99.90
18339;DHT22;9295;44.484;11.240;2023-02-17T03:26:55;5.30;99.90
18339;DHT22;9295;44.484;11.240;2023-02-17T03:29:24;5.30;99.90
18339;DHT22;9295;44.484;11.240;2023-02-17T03:31:53;5.30;99.90
18339;DHT22;9295;44.484;11.240;2023-02-17T03:34:23;5.30;99.90
18339;DHT22;9295;44.484;11.240;2023-02-17T03:36:51;5.30;99.90
18339;DHT22;9295;44.484;11.240;2023-02-17T03:39:20;5.30;99.90
18339;DHT22;9295;44.484;11.240;2023-02-17T03:41:48;5.20;99.90
18339;DHT22;9295;44.484;11.240;2023-02-17T03:44:18;5.20;99.90
18339;DHT22;9295;44.484;11.240;2023-02-17T03:46:46;5.20;99.90
18339;DHT22;9295;44.484;11.240;2023-02-17T03:49:15;5.10;99.90
18339;DHT22;9295;44.484;11.240;2023-02-17T03:51:45;5.20;99.90
18339;DHT22;9295;44.484;11.240;2023-02-17T03:54:13;5.10;99.90
18339;DHT22;9295;44.484;11.240;2023-02-17T03:56:42;5.20;99.90
18339;DHT22;9295;44.484;11.240;2023-02-17T03:59:10;5.20;99.90
18339;DHT22;9295;44.484;11.240;2023-02-17T04:01:39;5.10;99.90
18339;DHT22;9295;44.484;11.240;2023-02-17T04:04:07;5.10;99.90
18339;DHT22;9295;44.484;11.240;2023-02-17T04:06:36;5.10;99.90
18339;DHT22;9295;44.484;11.240;2023-02-17T04:09:06;5.20;99.90
18339;DHT22;9295;44.484;11.240;2023-02-17T04:11:35;5.10;99.90
18339;DHT22;9295;44.484;11.240;2023-02-17T04:14:03;5.20;99.90
18339;DHT22;9295;44.484;11.240;2023-02-17T04:16:32;5.20;99.90
18339;DHT22;9295;44.484;11.240;2023-02-17T04:19:00;5.30;99.90
18339;DHT22;9295;44.484;11.240;2023-02-17T04:21:28;5.30;99.90
18339;DHT22;9295;44.484;11.240;2023-02-17T04:23:59;5.40;99.90
18339;DHT22;9295;44.484;11.240;2023-02-17T04:26:29;5.40;99.90
18339;DHT22;9295;44.484;11.240;2023-02-17T04:28:58;5.40;99.90
18339;DHT22;9295;44.484;11.240;2023-02-17T04:31:26;5.40;99.90
18339;DHT22;9295;44.484;11.240;2023-02-17T04:33:55;5.40;99.90
18339;DHT22;9295;44.484;11.240;2023-02-17T04:36:24;5.40;99.90
18339;DHT22;9295;44.484;11.240;2023-02-17T04:38:52;5.50;99.90
18339;DHT22;9295;44.484;11.240;2023-02-17T04:41:21;5.50;99.90
18339;DHT22;9295;44.484;11.240;2023-02-17T04:43:51;5.50;99.90
18339;DHT22;9295;44.484;11.240;2023-02-17T04:46:19;5.50;99.90
18339;DHT22;9295;44.484;11.240;2023-02-17T04:48:48;5.50;99.90
18339;DHT22;9295;44.484;11.240;2023-02-17T04:51:16;5.50;99.90
18339;DHT22;9295;44.484;11.240;2023-02-17T04:53:45;5.60;99.90
18339;DHT22;9295;44.484;11.240;2023-02-17T04:56:13;5.70;99.90
18339;DHT22;9295;44.484;11.240;2023-02-17T04:58:42;5.70;99.90
18339;DHT22;9295;44.484;11.240;2023-02-17T05:01:12;5.80;99.90
18339;DHT22;9295;44.484;11.240;2023-02-17T05:03:40;5.80;99.90
18339;DHT22;9295;44.484;11.240;2023-02-17T05:06:09;5.90;99.90
18339;DHT22;9295;44.484;11.240;2023-02-17T05:08:38;5.90;99.90
18339;DHT22;9295;44.484;11.240;2023-02-17T05:11:06;6.00;99.90
18339;DHT22;9295;44.484;11.240;2023-02-17T05:13:35;6.00;99.90
18339;DHT22;9295;44.484;11.240;2023-02-17T05:16:03;6.00;99.90
18339;DHT22;9295;44.484;11.240;2023-02-17T05:18:34;6.10;99.90
18339;DHT22;9295;44.484;11.240;2023-02-17T05:21:03;6.10;99.90
18339;DHT22;9295;44.484;11.240;2023-02-17T05:23:31;6.20;99.90
18339;DHT22;9295;44.484;11.240;2023-02-17T05:26:00;6.20;99.90
18339;DHT22;9295;44.484;11.240;2023-02-17T05:28:28;6.20;99.90
18339;DHT22;9295;44.484;11.240;2023-02-17T05:30:57;6.20;99.90
18339;DHT22;9295;44.484;11.240;2023-02-17T05:33:27;6.20;99.90
18339;DHT22;9295;44.484;11.240;2023-02-17T05:36:00;6.20;99.90
18339;DHT22;9295;44.484;11.240;2023-02-17T05:38:29;6.20;99.90
18339;DHT22;9295;44.484;11.240;2023-02-17T05:40:58;6.20;99.90
18339;DHT22;9295;44.484;11.240;2023-02-17T05:43:27;6.20;99.90
18339;DHT22;9295;44.484;11.240;2023-02-17T05:45:55;6.20;99.90
18339;DHT22;9295;44.484;11.240;2023-02-17T05:48:24;6.20;99.90
18339;DHT22;9295;44.484;11.240;2023-02-17T05:50:52;6.10;99.90
18339;DHT22;9295;44.484;11.240;2023-02-17T05:53:22;6.10;99.90
18339;DHT22;9295;44.484;11.240;2023-02-17T05:55:51;6.10;99.90
18339;DHT22;9295;44.484;11.240;2023-02-17T05:58:20;6.20;99.90
18339;DHT22;9295;44.484;11.240;2023-02-17T06:00:49;6.10;99.90
18339;DHT22;9295;44.484;11.240;2023-02-17T06:03:17;6.10;99.90
18339;DHT22;9295;44.484;11.240;2023-02-17T06:05:46;6.00;99.90
18339;DHT22;9295;44.484;11.240;2023-02-17T06:08:14;6.10;99.90
18339;DHT22;9295;44.484;11.240;2023-02-17T06:10:44;6.10;99.90
18339;DHT22;9295;44.484;11.240;2023-02-17T06:13:13;6.10;99.90
18339;DHT22;9295;44.484;11.240;2023-02-17T06:15:41;6.10;99.90
18339;DHT22;9295;44.484;11.240;2023-02-17T06:18:10;6.10;99.90
18339;DHT22;9295;44.484;11.240;2023-02-17T06:20:38;6.10;99.90
18339;DHT22;9295;44.484;11.240;2023-02-17T06:23:07;6.10;99.90
18339;DHT22;9295;44.484;11.240;2023-02-17T06:25:35;6.10;99.90
18339;DHT22;9295;44.484;11.240;2023-02-17T06:28:05;6.10;99.90
18339;DHT22;9295;44.484;11.240;2023-02-17T06:30:34;6.10;99.90
18339;DHT22;9295;44.484;11.240;2023-02-17T06:33:03;6.10;99.90
18339;DHT22;9295;44.484;11.240;2023-02-17T06:35:31;6.10;99.90
18339;DHT22;9295;44.484;11.240;2023-02-17T06:38:00;6.10;99.90
18339;DHT22;9295;44.484;11.240;2023-02-17T06:40:29;6.10;99.90
18339;DHT22;9295;44.484;11.240;2023-02-17T06:42:57;6.20;99.90
18339;DHT22;9295;44.484;11.240;2023-02-17T06:45:27;6.20;99.90
18339;DHT22;9295;44.484;11.240;2023-02-17T06:47:56;6.30;99.90
18339;DHT22;9295;44.484;11.240;2023-02-17T06:50:24;6.40;99.90
18339;DHT22;9295;44.484;11.240;2023-02-17T06:52:53;6.40;99.90
18339;DHT22;9295;44.484;11.240;2023-02-17T06:55:21;6.50;99.90
18339;DHT22;9295;44.484;11.240;2023-02-17T06:57:50;6.50;99.90
18339;DHT22;9295;44.484;11.240;2023-02-17T07:00:20;6.60;99.90
18339;DHT22;9295;44.484;11.240;2023-02-17T07:02:50;6.60;99.90
18339;DHT22;9295;44.484;11.240;2023-02-17T07:05:18;6.70;99.90
18339;DHT22;9295;44.484;11.240;2023-02-17T07:07:47;6.80;99.90
18339;DHT22;9295;44.484;11.240;2023-02-17T07:10:15;7.00;99.90
18339;DHT22;9295;44.484;11.240;2023-02-17T07:12:44;7.80;99.90
18339;DHT22;9295;44.484;11.240;2023-02-17T07:15:13;9.00;99.90
18339;DHT22;9295;44.484;11.240;2023-02-17T07:17:41;9.90;99.90
18339;DHT22;9295;44.484;11.240;2023-02-17T07:20:12;10.90;99.90
18339;DHT22;9295;44.484;11.240;2023-02-17T07:22:40;11.80;99.90
18339;DHT22;9295;44.484;11.240;2023-02-17T07:25:09;12.40;99.90
18339;DHT22;9295;44.484;11.240;2023-02-17T07:27:37;12.90;99.90
18339;DHT22;9295;44.484;11.240;2023-02-17T07:30:07;13.40;99.90
18339;DHT22;9295;44.484;11.240;2023-02-17T07:32:36;13.40;99.90
18339;DHT22;9295;44.484;11.240;2023-02-17T07:35:05;13.70;99.90
18339;DHT22;9295;44.484;11.240;2023-02-17T07:37:34;14.20;99.90
18339;DHT22;9295;44.484;11.240;2023-02-17T07:40:04;14.50;99.90
18339;DHT22;9295;44.484;11.240;2023-02-17T07:42:33;14.80;99.90
18339;DHT22;9295;44.484;11.240;2023-02-17T07:45:02;14.60;99.90
18339;DHT22;9295;44.484;11.240;2023-02-17T07:47:31;15.00;99.90
18339;DHT22;9295;44.484;11.240;2023-02-17T07:49:59;15.20;99.90
18339;DHT22;9295;44.484;11.240;2023-02-17T07:52:28;16.10;99.90
18339;DHT22;9295;44.484;11.240;2023-02-17T07:54:58;16.90;99.90
18339;DHT22;9295;44.484;11.240;2023-02-17T07:57:27;17.40;99.90
18339;DHT22;9295;44.484;11.240;2023-02-17T07:59:55;17.60;99.90
18339;DHT22;9295;44.484;11.240;2023-02-17T08:02:24;17.60;99.90
18339;DHT22;9295;44.484;11.240;2023-02-17T08:04:52;17.80;99.90
18339;DHT22;9295;44.484;11.240;2023-02-17T08:07:21;18.30;99.90
18339;DHT22;9295;44.484;11.240;2023-02-17T08:09:49;18.60;99.90
18339;DHT22;9295;44.484;11.240;2023-02-17T08:12:37;19.00;99.90
18339;DHT22;9295;44.484;11.240;2023-02-17T08:15:23;19.50;99.90
18339;DHT22;9295;44.484;11.240;2023-02-17T08:17:53;19.50;98.40
18339;DHT22;9295;44.484;11.240;2023-02-17T08:20:21;18.30;98.20
18339;DHT22;9295;44.484;11.240;2023-02-17T08:22:50;17.20;99.50
18339;DHT22;9295;44.484;11.240;2023-02-17T08:25:18;17.00;99.90
18339;DHT22;9295;44.484;11.240;2023-02-17T08:27:49;17.40;99.90
18339;DHT22;9295;44.484;11.240;2023-02-17T08:30:18;18.00;99.90
18339;DHT22;9295;44.484;11.240;2023-02-17T08:32:46;17.90;98.90
18339;DHT22;9295;44.484;11.240;2023-02-17T08:35:15;16.40;99.90
18339;DHT22;9295;44.484;11.240;2023-02-17T08:37:45;14.90;99.90
18339;DHT22;9295;44.484;11.240;2023-02-17T08:40:15;14.40;99.90
18339;DHT22;9295;44.484;11.240;2023-02-17T08:42:45;14.40;99.90
18339;DHT22;9295;44.484;11.240;2023-02-17T08:45:15;14.40;99.90
18339;DHT22;9295;44.484;11.240;2023-02-17T08:47:44;14.50;99.90
18339;DHT22;9295;44.484;11.240;2023-02-17T08:50:13;14.40;99.90
18339;DHT22;9295;44.484;11.240;2023-02-17T08:52:43;14.50;99.90
18339;DHT22;9295;44.484;11.240;2023-02-17T08:55:12;14.60;99.90
18339;DHT22;9295;44.484;11.240;2023-02-17T08:57:41;13.90;99.90
18339;DHT22;9295;44.484;11.240;2023-02-17T09:00:11;13.30;99.90
18339;DHT22;9295;44.484;11.240;2023-02-17T09:02:42;13.10;99.90
18339;DHT22;9295;44.484;11.240;2023-02-17T09:05:12;13.60;99.90
18339;DHT22;9295;44.484;11.240;2023-02-17T09:07:41;14.10;99.90
18339;DHT22;9295;44.484;11.240;2023-02-17T09:10:10;14.40;99.90
18339;DHT22;9295;44.484;11.240;2023-02-17T09:12:39;14.60;99.90
18339;DHT22;9295;44.484;11.240;2023-02-17T09:15:08;14.70;99.90
18339;DHT22;9295;44.484;11.240;2023-02-17T09:17:38;14.60;99.90
18339;DHT22;9295;44.484;11.240;2023-02-17T09:20:09;14.30;99.90
18339;DHT22;9295;44.484;11.240;2023-02-17T09:22:50;14.00;99.90
18339;DHT22;9295;44.484;11.240;2023-02-17T09:25:19;13.90;99.90
18339;DHT22;9295;44.484;11.240;2023-02-17T09:27:48;14.00;99.90
18339;DHT22;9295;44.484;11.240;2023-02-17T09:30:16;14.00;99.90
18339;DHT22;9295;44.484;11.240;2023-02-17T09:32:45;14.00;99.90
18339;DHT22;9295;44.484;11.240;2023-02-17T09:35:17;14.00;99.90
18339;DHT22;9295;44.484;11.240;2023-02-17T09:37:49;13.80;99.90
18339;DHT22;9295;44.484;11.240;2023-02-17T09:40:20;13.80;99.90
18339;DHT22;9295;44.484;11.240;2023-02-17T09:42:49;13.50;99.90
18339;DHT22;9295;44.484;11.240;2023-02-17T09:45:21;13.10;99.90
18339;DHT22;9295;44.484;11.240;2023-02-17T09:47:55;13.20;99.90
18339;DHT22;9295;44.484;11.240;2023-02-17T09:50:28;13.50;99.90
18339;DHT22;9295;44.484;11.240;2023-02-17T09:53:03;13.90;99.90
18339;DHT22;9295;44.484;11.240;2023-02-17T09:55:37;14.00;99.90
18339;DHT22;9295;44.484;11.240;2023-02-17T09:58:12;14.00;99.90
18339;DHT22;9295;44.484;11.240;2023-02-17T10:00:45;14.00;99.90
18339;DHT22;9295;44.484;11.240;2023-02-17T10:03:17;14.20;99.90
18339;DHT22;9295;44.484;11.240;2023-02-17T10:05:51;14.10;99.90
18339;DHT22;9295;44.484;11.240;2023-02-17T10:08:24;14.20;99.90
18339;DHT22;9295;44.484;11.240;2023-02-17T10:11:00;14.10;99.90
18339;DHT22;9295;44.484;11.240;2023-02-17T10:13:33;14.00;99.90
18339;DHT22;9295;44.484;11.240;2023-02-17T10:16:05;13.50;99.90
18339;DHT22;9295;44.484;11.240;2023-02-17T10:18:39;13.30;99.90
18339;DHT22;9295;44.484;11.240;2023-02-17T10:21:17;13.40;99.90
18339;DHT22;9295;44.484;11.240;2023-02-17T10:23:48;13.60;99.90
18339;DHT22;9295;44.484;11.240;2023-02-17T10:26:23;13.70;99.90
18339;DHT22;9295;44.484;11.240;2023-02-17T10:28:58;13.90;99.90
18339;DHT22;9295;44.484;11.240;2023-02-17T10:31:40;14.10;99.90
18339;DHT22;9295;44.484;11.240;2023-02-17T10:34:15;14.20;99.90
18339;DHT22;9295;44.484;11.240;2023-02-17T10:36:55;14.30;99.90
18339;DHT22;9295;44.484;11.240;2023-02-17T10:39:40;14.20;99.90
18339;DHT22;9295;44.484;11.240;2023-02-17T10:42:17;14.20;99.90
18339;DHT22;9295;44.484;11.240;2023-02-17T10:44:49;13.80;99.90
18339;DHT22;9295;44.484;11.240;2023-02-17T10:47:20;13.60;99.90
18339;DHT22;9295;44.484;11.240;2023-02-17T10:49:51;13.10;99.90
18339;DHT22;9295;44.484;11.240;2023-02-17T10:52:24;12.80;99.90
18339;DHT22;9295;44.484;11.240;2023-02-17T10:54:58;12.90;99.90
18339;DHT22;9295;44.484;11.240;2023-02-17T10:57:38;13.10;99.90
18339;DHT22;9295;44.484;11.240;2023-02-17T11:00:15;13.40;99.90
18339;DHT22;9295;44.484;11.240;2023-02-17T11:02:46;13.70;99.90
18339;DHT22;9295;44.484;11.240;2023-02-17T11:05:23;14.00;99.90
18339;DHT22;9295;44.484;11.240;2023-02-17T11:07:59;14.20;99.90
18339;DHT22;9295;44.484;11.240;2023-02-17T11:10:31;14.30;99.90
18339;DHT22;9295;44.484;11.240;2023-02-17T11:13:01;14.20;99.90
18339;DHT22;9295;44.484;11.240;2023-02-17T11:15:34;14.20;99.90
18339;DHT22;9295;44.484;11.240;2023-02-17T11:18:09;14.10;99.90
18339;DHT22;9295;44.484;11.240;2023-02-17T11:20:39;13.90;99.90
18339;DHT22;9295;44.484;11.240;2023-02-17T11:23:21;13.70;99.90
18339;DHT22;9295;44.484;11.240;2023-02-17T11:25:57;13.30;99.90
18339;DHT22;9295;44.484;11.240;2023-02-17T11:28:27;13.40;99.90
18339;DHT22;9295;44.484;11.240;2023-02-17T11:30:58;13.70;99.90
18339;DHT22;9295;44.484;11.240;2023-02-17T11:33:31;14.00;99.90
18339;DHT22;9295;44.484;11.240;2023-02-17T11:36:01;14.10;99.90
18339;DHT22;9295;44.484;11.240;2023-02-17T11:38:41;14.30;99.90
18339;DHT22;9295;44.484;11.240;2023-02-17T11:41:10;14.30;99.90
18339;DHT22;9295;44.484;11.240;2023-02-17T11:43:50;14.30;99.90
18339;DHT22;9295;44.484;11.240;2023-02-17T11:46:23;14.40;99.90
18339;DHT22;9295;44.484;11.240;2023-02-17T11:52:21;14.60;99.90
18339;DHT22;9295;44.484;11.240;2023-02-17T11:55:02;14.30;99.90
18339;DHT22;9295;44.484;11.240;2023-02-17T11:57:37;14.30;99.90
18339;DHT22;9295;44.484;11.240;2023-02-17T12:00:15;14.50;99.90
18339;DHT22;9295;44.484;11.240;2023-02-17T12:03:08;14.60;99.90
18339;DHT22;9295;44.484;11.240;2023-02-17T12:05:50;14.70;99.90
18339;DHT22;9295;44.484;11.240;2023-02-17T12:08:32;14.80;99.90
18339;DHT22;9295;44.484;11.240;2023-02-17T12:11:12;14.80;99.90
18339;DHT22;9295;44.484;11.240;2023-02-17T12:13:54;14.60;99.90
18339;DHT22;9295;44.484;11.240;2023-02-17T12:16:38;14.40;99.90
18339;DHT22;9295;44.484;11.240;2023-02-17T12:19:31;14.30;99.90
18339;DHT22;9295;44.484;11.240;2023-02-17T12:22:17;14.30;99.90
18339;DHT22;9295;44.484;11.240;2023-02-17T12:24:57;14.20;99.90
18339;DHT22;9295;44.484;11.240;2023-02-17T12:27:41;13.70;99.90
18339;DHT22;9295;44.484;11.240;2023-02-17T12:30:22;14.00;99.90
18339;DHT22;9295;44.484;11.240;2023-02-17T12:33:01;14.40;99.90
18339;DHT22;9295;44.484;11.240;2023-02-17T12:35:47;14.70;99.90
18339;DHT22;9295;44.484;11.240;2023-02-17T12:38:24;15.00;99.90
18339;DHT22;9295;44.484;11.240;2023-02-17T12:40:57;14.90;99.90
18339;DHT22;9295;44.484;11.240;2023-02-17T12:43:35;14.60;99.90
18339;DHT22;9295;44.484;11.240;2023-02-17T12:46:09;14.50;99.90
18339;DHT22;9295;44.484;11.240;2023-02-17T12:48:43;14.70;99.90
18339;DHT22;9295;44.484;11.240;2023-02-17T12:51:17;14.90;99.90
18339;DHT22;9295;44.484;11.240;2023-02-17T12:53:50;14.90;99.90
18339;DHT22;9295;44.484;11.240;2023-02-17T12:56:46;14.90;99.90
18339;DHT22;9295;44.484;11.240;2023-02-17T12:59:19;14.80;99.90
18339;DHT22;9295;44.484;11.240;2023-02-17T13:01:53;14.70;99.90
18339;DHT22;9295;44.484;11.240;2023-02-17T13:04:24;14.70;99.90
18339;DHT22;9295;44.484;11.240;2023-02-17T13:07:01;14.60;99.90
18339;DHT22;9295;44.484;11.240;2023-02-17T13:09:34;14.70;99.90
18339;DHT22;9295;44.484;11.240;2023-02-17T13:12:15;14.90;99.90
18339;DHT22;9295;44.484;11.240;2023-02-17T13:14:47;15.20;99.90
18339;DHT22;9295;44.484;11.240;2023-02-17T13:17:24;15.40;99.90
18339;DHT22;9295;44.484;11.240;2023-02-17T13:22:50;15.50;99.90
18339;DHT22;9295;44.484;11.240;2023-02-17T13:25:31;15.60;99.90
18339;DHT22;9295;44.484;11.240;2023-02-17T13:31:12;15.50;99.90
18339;DHT22;9295;44.484;11.240;2023-02-17T13:33:45;15.50;99.90
18339;DHT22;9295;44.484;11.240;2023-02-17T13:36:16;15.50;99.90
18339;DHT22;9295;44.484;11.240;2023-02-17T13:38:57;15.40;99.90
18339;DHT22;9295;44.484;11.240;2023-02-17T13:41:31;15.20;99.90
18339;DHT22;9295;44.484;11.240;2023-02-17T13:44:18;15.40;99.90
18339;DHT22;9295;44.484;11.240;2023-02-17T13:46:50;15.60;99.90
18339;DHT22;9295;44.484;11.240;2023-02-17T13:49:21;15.80;99.90
18339;DHT22;9295;44.484;11.240;2023-02-17T13:51:50;15.90;99.90
18339;DHT22;9295;44.484;11.240;2023-02-17T13:54:20;16.00;99.90
18339;DHT22;9295;44.484;11.240;2023-02-17T13:56:50;16.00;99.90
18339;DHT22;9295;44.484;11.240;2023-02-17T13:59:24;15.80;99.90
18339;DHT22;9295;44.484;11.240;2023-02-17T14:01:55;15.70;99.90
18339;DHT22;9295;44.484;11.240;2023-02-17T14:04:25;15.60;99.90
18339;DHT22;9295;44.484;11.240;2023-02-17T14:06:56;15.80;99.90
18339;DHT22;9295;44.484;11.240;2023-02-17T14:09:27;16.00;99.90
18339;DHT22;9295;44.484;11.240;2023-02-17T14:12:00;16.00;99.90
18339;DHT22;9295;44.484;11.240;2023-02-17T14:14:31;16.00;99.90
18339;DHT22;9295;44.484;11.240;2023-02-17T14:17:04;15.70;99.90
18339;DHT22;9295;44.484;11.240;2023-02-17T14:19:41;15.70;99.90
18339;DHT22;9295;44.484;11.240;2023-02-17T14:22:23;15.90;99.90
18339;DHT22;9295;44.484;11.240;2023-02-17T14:24:59;16.00;99.90
18339;DHT22;9295;44.484;11.240;2023-02-17T14:27:39;16.00;99.90
18339;DHT22;9295;44.484;11.240;2023-02-17T14:30:13;16.00;99.90
18339;DHT22;9295;44.484;11.240;2023-02-17T14:32:43;15.70;99.90
18339;DHT22;9295;44.484;11.240;2023-02-17T14:35:21;15.50;99.90
18339;DHT22;9295;44.484;11.240;2023-02-17T14:37:51;15.50;99.90
18339;DHT22;9295;44.484;11.240;2023-02-17T14:40:22;15.40;99.90
18339;DHT22;9295;44.484;11.240;2023-02-17T14:42:51;15.40;99.90
18339;DHT22;9295;44.484;11.240;2023-02-17T14:45:20;15.60;99.90
18339;DHT22;9295;44.484;11.240;2023-02-17T14:47:50;15.80;99.90
18339;DHT22;9295;44.484;11.240;2023-02-17T14:50:19;15.80;99.90
18339;DHT22;9295;44.484;11.240;2023-02-17T14:52:48;15.40;99.90
18339;DHT22;9295;44.484;11.240;2023-02-17T14:55:31;15.10;99.90
18339;DHT22;9295;44.484;11.240;2023-02-17T14:58:02;15.10;99.90
18339;DHT22;9295;44.484;11.240;2023-02-17T15:00:31;15.40;99.90
18339;DHT22;9295;44.484;11.240;2023-02-17T15:03:01;15.50;99.90
18339;DHT22;9295;44.484;11.240;2023-02-17T15:05:30;15.60;99.90
18339;DHT22;9295;44.484;11.240;2023-02-17T15:08:00;15.60;99.90
18339;DHT22;9295;44.484;11.240;2023-02-17T15:10:29;15.60;99.90
18339;DHT22;9295;44.484;11.240;2023-02-17T15:12:58;15.50;99.90
18339;DHT22;9295;44.484;11.240;2023-02-17T15:15:26;15.30;99.90
18339;DHT22;9295;44.484;11.240;2023-02-17T15:17:56;15.20;99.90
18339;DHT22;9295;44.484;11.240;2023-02-17T15:20:26;15.20;99.90
18339;DHT22;9295;44.484;11.240;2023-02-17T15:22:55;15.30;99.90
18339;DHT22;9295;44.484;11.240;2023-02-17T15:25:24;15.20;99.90
18339;DHT22;9295;44.484;11.240;2023-02-17T15:27:54;15.30;99.90
18339;DHT22;9295;44.484;11.240;2023-02-17T15:30:23;15.30;99.90
18339;DHT22;9295;44.484;11.240;2023-02-17T15:32:54;15.20;99.90
18339;DHT22;9295;44.484;11.240;2023-02-17T15:35:26;15.20;99.90
18339;DHT22;9295;44.484;11.240;2023-02-17T15:37:55;15.20;99.90
18339;DHT22;9295;44.484;11.240;2023-02-17T15:40:25;15.30;99.90
18339;DHT22;9295;44.484;11.240;2023-02-17T15:42:55;15.10;99.90
18339;DHT22;9295;44.484;11.240;2023-02-17T15:45:26;14.80;99.90
18339;DHT22;9295;44.484;11.240;2023-02-17T15:48:02;14.80;99.90
18339;DHT22;9295;44.484;11.240;2023-02-17T15:50:33;14.80;99.90
18339;DHT22;9295;44.484;11.240;2023-02-17T15:53:02;14.90;99.90
18339;DHT22;9295;44.484;11.240;2023-02-17T15:55:32;15.00;99.90
18339;DHT22;9295;44.484;11.240;2023-02-17T15:58:03;15.00;99.90
18339;DHT22;9295;44.484;11.240;2023-02-17T16:00:34;14.90;99.90
18339;DHT22;9295;44.484;11.240;2023-02-17T16:03:03;14.40;99.90
18339;DHT22;9295;44.484;11.240;2023-02-17T16:05:33;14.30;99.90
18339;DHT22;9295;44.484;11.240;2023-02-17T16:08:02;14.40;99.90
18339;DHT22;9295;44.484;11.240;2023-02-17T16:10:31;14.50;99.90
18339;DHT22;9295;44.484;11.240;2023-02-17T16:13:01;14.50;99.90
18339;DHT22;9295;44.484;11.240;2023-02-17T16:15:31;14.40;99.90
18339;DHT22;9295;44.484;11.240;2023-02-17T16:17:59;14.10;99.90
18339;DHT22;9295;44.484;11.240;2023-02-17T16:20:30;13.70;99.90